Baudette, MN

14:57 CDT le 25 juillet 2014 (GMT -0500)
Baudette International (KBDE) Alt. 1083 ft | 48.73 °N, 94.61 °W | Change Station

Current weather conditions updated 4 minutes ago

Overcast
Couvert
74 ° F
Paraît 74 ° F
N
4
Vent Variable Vent de Variable

Aujourd’hui il est prévu de faire pratiquement la même température qu’hier. Orages épars..

Aujourd'hui
Haut(e) -- | Bas -- ° F
--% Risque de précip.
Hier
Haut(e) -- | Bas -- ° F
Precip. -- pouce
5:44 AM 9:06 PM
Lune descendante, 1% visible
Pression 29.74 pouce
Visibilité 10.0 Miles terrestres
Nuages Nuageux 2400 ft
Couvert 4100 ft
Point de rosée 64 ° F
Humidité 71%
Précipitations 0.00 pouce
Profondeur de la couche neigeuse Non disponible.
UV 3 sur 12
Pollen 5.40 sur 12
Qualité de l'air Non disponible.
Flu Activity Non disponible.
METAR KBDE 251953Z AUTO VRB03KT 10SM BKN024 OVC041 23/18 A2974 RMK AO2 SLP070 T02330178 TSNO

More Conditions Fewer Conditions

Pression 29.74 pouce
Visibilité 10.0 Miles terrestres
Nuages Nuageux 2400 ft
Couvert 4100 ft
Point de rosée 64 ° F
Humidité 71%
Précipitations 0.00 pouce
Profondeur de la couche neigeuse Non disponible.
UV 3 sur 12
Pollen 5.40 sur 12
Qualité de l'air Non disponible.
Flu Activity Non disponible.
METAR KBDE 251953Z AUTO VRB03KT 10SM BKN024 OVC041 23/18 A2974 RMK AO2 SLP070 T02330178 TSNO

More Conditions Fewer Conditions

10-Day Weather Forecast

Almanac

Astronomie

Jul. 25, 2014 Lever Coucher
Temps réel 05:44 CDT 21:06 CDT
Crépuscule civil 05:06 CDT 21:44 CDT
Crépuscule nautique 04:15 CDT 22:34 CDT
Crépuscule astronomique 03:08 CDT 23:40 CDT
Lune 04:48 CDT 19:58 CDT
Durée de lumière visible 16h 38m
Longueur du jour
15h 21m
Tomorrow will be 2m 31s shorter.
Lune descendante, 1% of the Moon is Illuminated
Aujourd'hui
Lune descendante
juil 26
Nouveau
août 3
Premier quartier
août 10
Pleine lune
août 17
Dernier quartier

Extrêmes aujourd'hui

State Highs State Lows

Community

WunderPhotos

Upload Photos

1,737,393 Photos téléchargées !

Nearby

Épaisseur de neige

Station Depth Altitude
Pas de nouvelles chutes de neige

Activité sismique

Ville Distance Mag. Time & Date
No recent earthquake activity has been reported nearby.
Minimum magnitude displayed is 2.5.

Températures des eaux côtières

Lieu Température
Aucun rapport de station

Stations météo à proximité

Il n'y a aucune station météorologique personnelle dans cette zone.